Airfield :
LOGIN :

Register | Disclaimer

   EN    FR    IT 

 










Legend :    VFR   Marginal VFR   IFR   Intensive IFR   Very Intensive IFR
Visi :
Ceiling :
>= 8 km
>= 3000ft
5 to 8 km
1000 to 3000 ft
1500m to 5 km
500 to 1000 ft
800 to 1500m
200 to 500 ft
< 800m
< 200 ft
Symbols :   Thunderstorms  Fog  Heavy snow  Heavy precipitations  Wind > 20 kt
SIGMETs :     Misc.  Thunderstorms  Icing  Turbulence  Mountain Waves  Volcanic Ashes







- Airport Elevation : 502 ft
- IATA code : ORK


EICK - Cork

CURRENT METAR :
  • 221400Z 14011KT 9999 FEW026 BKN070 14/09 Q0998 NOSIG

EXPIRED METARs :
  • 221330Z 14014KT 9999 FEW026 BKN070 16/08 Q0998 NOSIG
  • 221300Z 15016KT 9999 FEW025 SCT060 16/08 Q0998 NOSIG
  • 221230Z 16014KT 9999 FEW025 16/09 Q0998 NOSIG
  • 221200Z 17014KT 9999 FEW024 16/09 Q0999 NOSIG
  • 221130Z 16015KT 9999 FEW024 15/09 Q0999 NOSIG

TAF TAF EICK
Valid from the 22 at 12:00 until the 23 at 12:00 UTC


221100Z 2212/2312 15013KT 9999 FEW025 SCT040
BECMG 2216/2218 3000 -RADZ BR BKN005
BECMG 2220/2223 10008KT
PROB40
TEMPO 2220/2304 0300 FG BKN001
BECMG 2306/2307 9999 NSW SCT020
No reported NOTAMs for that airfield.



MET'MAP, your aeronautical weather chart ! - Copyright ORBIFLY December 2007 - Disclaimer

ORBIFLY MET'MAP TEAM :

Programming & Development : Alexandra Zaïnal
Concept & Development : Baudouin d'Aumeries
Co-Development & Prog : Marc-Olivier Méhu
Technical & hardware support : Manuel Goepfert

Contact : metmap@orbifly.com




SOURCES & CREDITS :

   NOAA